createdAt,value
2023-05-10T00:01:55.458Z,84.38
2023-05-10T00:04:23.769Z,84.46
2023-05-10T00:06:52.052Z,84.32
2023-05-10T00:09:21.818Z,84.35
2023-05-10T00:11:49.992Z,85.61
2023-05-10T00:14:18.325Z,85.14
2023-05-10T00:16:46.959Z,84.39
2023-05-10T00:19:15.170Z,84.12
2023-05-10T00:21:44.148Z,83.31
2023-05-10T00:24:12.618Z,83.14
2023-05-10T00:26:43.174Z,83.73
2023-05-10T00:29:12.008Z,83.96
2023-05-10T00:31:40.219Z,83.69
2023-05-10T00:34:08.511Z,83.26
2023-05-10T00:36:36.828Z,82.68
2023-05-10T00:39:05.508Z,83.53
2023-05-10T00:41:33.864Z,83.48
2023-05-10T00:44:05.258Z,83.16
2023-05-10T00:46:33.909Z,82.79
2023-05-10T00:49:02.536Z,82.81
2023-05-10T00:51:32.040Z,82.74
2023-05-10T00:54:00.994Z,82.50
2023-05-10T00:56:30.767Z,82.01
2023-05-10T00:58:59.102Z,81.97
2023-05-10T01:01:28.977Z,82.03
2023-05-10T01:03:58.025Z,82.17
2023-05-10T01:06:26.533Z,81.95
2023-05-10T01:08:54.777Z,81.74
2023-05-10T01:11:23.114Z,81.95
2023-05-10T01:13:57.974Z,81.66
2023-05-10T01:16:28.812Z,81.85
2023-05-10T01:18:57.108Z,81.36
2023-05-10T01:21:35.428Z,81.25
2023-05-10T01:24:41.467Z,81.55
2023-05-10T01:27:50.301Z,81.07
2023-05-10T01:30:52.885Z,80.81
2023-05-10T01:33:29.014Z,80.95
2023-05-10T01:36:05.817Z,80.95
2023-05-10T01:38:44.032Z,81.10
2023-05-10T01:41:19.753Z,81.10
2023-05-10T01:43:57.767Z,81.16
2023-05-10T01:46:34.935Z,80.94
2023-05-10T01:49:09.680Z,80.69
2023-05-10T01:51:42.723Z,80.91
2023-05-10T01:54:14.331Z,80.42
2023-05-10T01:56:45.862Z,80.47
2023-05-10T01:59:18.845Z,80.22
2023-05-10T02:01:49.151Z,80.30
2023-05-10T02:04:24.118Z,80.00
2023-05-10T02:06:55.694Z,80.37
2023-05-10T02:09:26.484Z,79.99
2023-05-10T02:11:56.110Z,79.84
2023-05-10T02:14:26.065Z,80.18
2023-05-10T02:16:56.709Z,80.21
2023-05-10T02:19:27.420Z,80.20
2023-05-10T02:21:57.542Z,80.74
2023-05-10T02:24:27.189Z,81.27
2023-05-10T02:26:57.778Z,81.38
2023-05-10T02:29:27.103Z,81.57
2023-05-10T02:31:58.426Z,82.46
2023-05-10T02:34:29.601Z,82.53
2023-05-10T02:36:58.802Z,82.92
2023-05-10T02:39:30.628Z,82.52
2023-05-10T02:41:59.763Z,82.41
2023-05-10T02:44:32.151Z,82.82
2023-05-10T02:47:00.867Z,82.04
2023-05-10T02:49:32.691Z,82.46
2023-05-10T02:52:08.252Z,81.97
2023-05-10T02:54:45.791Z,82.36
2023-05-10T02:57:20.370Z,83.33
2023-05-10T02:59:48.735Z,83.15
2023-05-10T03:02:17.014Z,83.12
2023-05-10T03:04:46.655Z,83.90
2023-05-10T03:07:15.101Z,83.47
2023-05-10T03:09:43.776Z,83.90
2023-05-10T03:12:20.884Z,83.79
2023-05-10T03:14:59.652Z,83.69
2023-05-10T03:17:38.740Z,83.86
2023-05-10T03:20:13.236Z,83.51
2023-05-10T03:22:49.600Z,83.77
2023-05-10T03:25:18.880Z,84.35
2023-05-10T03:27:48.652Z,84.39
2023-05-10T03:30:18.217Z,84.27
2023-05-10T03:32:46.912Z,83.87
2023-05-10T03:35:19.194Z,84.28
2023-05-10T03:37:48.233Z,84.21
2023-05-10T03:40:17.169Z,84.96
2023-05-10T03:42:46.114Z,84.70
2023-05-10T03:45:14.254Z,84.55
2023-05-10T03:47:42.982Z,84.30
2023-05-10T03:50:12.370Z,83.77
2023-05-10T03:52:42.152Z,83.98
2023-05-10T03:55:11.528Z,83.88
2023-05-10T03:57:42.924Z,83.45
2023-05-10T04:00:15.763Z,82.76
2023-05-10T04:02:45.398Z,83.06
2023-05-10T04:05:19.687Z,83.02
2023-05-10T04:07:50.318Z,83.20
2023-05-10T04:10:19.023Z,83.02
2023-05-10T04:12:47.400Z,82.84
2023-05-10T04:15:15.867Z,83.00
2023-05-10T04:17:44.165Z,82.76
2023-05-10T04:20:13.948Z,82.89
2023-05-10T04:22:42.635Z,82.73
2023-05-10T04:25:12.601Z,82.54
2023-05-10T04:27:40.832Z,81.91
2023-05-10T04:30:11.685Z,82.23
2023-05-10T04:32:39.924Z,82.12
2023-05-10T04:35:09.053Z,82.64
2023-05-10T04:37:37.589Z,82.67
2023-05-10T04:40:07.989Z,82.56
2023-05-10T04:42:37.737Z,82.48
2023-05-10T04:45:07.366Z,83.00
2023-05-10T04:47:35.609Z,82.51
2023-05-10T04:50:04.107Z,82.36
2023-05-10T04:52:32.345Z,81.87
2023-05-10T04:55:02.742Z,81.48
2023-05-10T04:57:30.992Z,81.66
2023-05-10T05:00:01.964Z,81.81
2023-05-10T05:02:30.326Z,81.95
2023-05-10T05:04:59.685Z,82.75
2023-05-10T05:07:28.101Z,82.75
2023-05-10T05:09:56.292Z,83.14
2023-05-10T05:12:24.411Z,82.98
2023-05-10T05:14:52.743Z,82.74
2023-05-10T05:17:22.285Z,82.76
2023-05-10T05:19:50.557Z,81.93
2023-05-10T05:22:20.764Z,82.22
2023-05-10T05:24:49.012Z,81.70
2023-05-10T05:27:17.246Z,82.04
2023-05-10T05:29:45.499Z,81.59
2023-05-10T05:32:13.651Z,83.17
2023-05-10T05:34:43.243Z,82.73
2023-05-10T05:37:16.304Z,82.18
2023-05-10T05:39:44.959Z,81.79
2023-05-10T05:42:14.291Z,81.36
2023-05-10T05:44:43.540Z,81.58
2023-05-10T05:47:12.173Z,82.14
2023-05-10T05:49:41.953Z,82.48
2023-05-10T05:52:11.728Z,82.99
2023-05-10T05:54:40.066Z,82.45
2023-05-10T05:57:08.635Z,82.78
2023-05-10T05:59:37.212Z,82.78
2023-05-10T06:02:05.641Z,83.12
2023-05-10T06:04:33.957Z,83.25
2023-05-10T06:07:03.772Z,82.93
2023-05-10T06:09:31.991Z,83.37
2023-05-10T06:12:00.189Z,83.58
2023-05-10T06:14:28.816Z,82.91
2023-05-10T06:16:57.077Z,82.98
2023-05-10T06:19:25.625Z,82.62
2023-05-10T06:21:54.115Z,82.93
2023-05-10T06:24:23.815Z,83.41
2023-05-10T06:26:52.050Z,83.32
2023-05-10T06:29:20.217Z,82.97
2023-05-10T06:31:49.102Z,82.95
2023-05-10T06:34:17.293Z,81.78
2023-05-10T06:36:45.918Z,81.51
2023-05-10T06:39:14.182Z,81.52
2023-05-10T06:41:43.667Z,80.79
2023-05-10T06:44:12.118Z,80.21
2023-05-10T06:46:40.576Z,80.50
2023-05-10T06:49:09.270Z,79.81
2023-05-10T06:51:37.663Z,79.36
2023-05-10T06:54:05.732Z,79.61
2023-05-10T06:56:33.945Z,78.70
2023-05-10T06:59:03.941Z,78.51
2023-05-10T07:01:32.428Z,77.98
2023-05-10T07:04:00.878Z,77.21
2023-05-10T07:06:33.734Z,76.58
2023-05-10T07:09:04.344Z,77.08
2023-05-10T07:11:32.528Z,76.38
2023-05-10T07:14:00.801Z,75.27
2023-05-10T07:16:30.426Z,74.45
2023-05-10T07:18:58.665Z,72.40
2023-05-10T07:21:29.682Z,73.89
2023-05-10T07:23:58.421Z,72.74
2023-05-10T07:26:26.721Z,73.54
2023-05-10T07:28:55.051Z,72.54
2023-05-10T07:31:23.228Z,72.67
2023-05-10T07:33:52.719Z,72.46
2023-05-10T07:36:21.265Z,72.93
2023-05-10T07:38:50.453Z,71.59
2023-05-10T07:41:18.728Z,73.27
2023-05-10T07:43:46.940Z,72.70
2023-05-10T07:46:15.235Z,70.32
2023-05-10T07:48:43.432Z,70.42
2023-05-10T07:51:13.130Z,70.09
2023-05-10T07:53:41.571Z,69.31
2023-05-10T07:56:28.243Z,69.90
2023-05-10T07:58:57.584Z,69.54
2023-05-10T08:01:26.144Z,67.92
2023-05-10T08:03:55.321Z,68.36
2023-05-10T08:06:25.006Z,67.32
2023-05-10T08:08:54.589Z,66.31
2023-05-10T08:11:23.169Z,65.12
2023-05-10T08:13:52.735Z,65.44
2023-05-10T08:16:21.014Z,65.47
2023-05-10T08:18:50.299Z,64.76
2023-05-10T08:21:20.059Z,64.86
2023-05-10T08:23:50.054Z,65.69
2023-05-10T08:26:18.482Z,65.43
2023-05-10T08:28:46.713Z,65.61
2023-05-10T08:31:14.966Z,66.28
2023-05-10T08:33:44.532Z,66.72
2023-05-10T08:36:15.149Z,65.32
2023-05-10T08:38:43.420Z,65.16
2023-05-10T08:41:13.708Z,64.47
2023-05-10T08:43:47.124Z,63.05
2023-05-10T08:46:19.510Z,62.70
2023-05-10T08:48:49.139Z,63.12
2023-05-10T08:51:22.235Z,63.05
2023-05-10T08:53:51.088Z,63.01
2023-05-10T08:56:21.801Z,63.61
2023-05-10T08:58:50.941Z,64.33
2023-05-10T09:01:20.328Z,64.35
2023-05-10T09:03:49.430Z,65.42
2023-05-10T09:06:18.067Z,65.68
2023-05-10T09:08:48.643Z,65.91
2023-05-10T09:11:17.160Z,68.18
2023-05-10T09:13:47.658Z,68.31
2023-05-10T09:16:21.597Z,66.03
2023-05-10T09:18:51.282Z,65.89
2023-05-10T09:21:21.445Z,65.13
2023-05-10T09:23:52.010Z,64.80
2023-05-10T09:26:24.949Z,62.94
2023-05-10T09:28:57.087Z,62.46
2023-05-10T09:31:26.719Z,61.24
2023-05-10T09:33:56.067Z,60.70
2023-05-10T09:36:25.223Z,61.06
2023-05-10T09:38:57.257Z,58.18
2023-05-10T09:41:26.957Z,58.87
2023-05-10T09:43:59.201Z,57.64
2023-05-10T09:46:27.599Z,58.01
2023-05-10T09:48:55.939Z,56.92
2023-05-10T09:51:29.085Z,59.28
2023-05-10T09:54:12.636Z,59.28
2023-05-10T09:56:45.868Z,57.94
2023-05-10T09:59:18.919Z,55.99
2023-05-10T10:01:52.129Z,54.13
2023-05-10T10:04:23.096Z,56.85
2023-05-10T10:07:02.932Z,56.11
2023-05-10T10:09:31.585Z,54.22
2023-05-10T10:12:01.087Z,53.54
2023-05-10T10:14:34.133Z,53.78
2023-05-10T10:17:08.630Z,52.95
2023-05-10T10:19:40.548Z,53.67
2023-05-10T10:22:08.734Z,52.96
2023-05-10T10:24:38.018Z,51.82
2023-05-10T10:27:22.672Z,51.58
2023-05-10T10:30:25.845Z,53.57
2023-05-10T10:33:36.821Z,54.10
2023-05-10T10:36:06.608Z,55.21
2023-05-10T10:39:01.649Z,54.51
2023-05-10T10:41:32.864Z,53.55
2023-05-10T10:44:40.151Z,54.57
2023-05-10T10:47:25.886Z,54.84
2023-05-10T10:50:06.204Z,52.73
2023-05-10T10:52:37.174Z,54.86
2023-05-10T10:55:09.513Z,55.71
2023-05-10T10:57:48.045Z,54.07
2023-05-10T11:00:29.565Z,55.61
2023-05-10T11:03:02.259Z,55.63
2023-05-10T11:05:48.833Z,55.81
2023-05-10T11:08:20.748Z,54.78
2023-05-10T11:11:08.927Z,54.32
2023-05-10T11:13:42.390Z,56.18
2023-05-10T11:16:19.995Z,58.35
2023-05-10T11:19:00.841Z,58.54
2023-05-10T11:21:29.224Z,59.07
2023-05-10T11:23:59.092Z,59.55
2023-05-10T11:26:32.371Z,59.38
2023-05-10T11:29:02.970Z,58.43
2023-05-10T11:31:31.711Z,58.66
2023-05-10T11:34:04.792Z,57.17
2023-05-10T11:36:37.503Z,56.26
2023-05-10T11:39:06.949Z,54.68
2023-05-10T11:41:35.678Z,54.94
2023-05-10T11:44:05.345Z,55.52
2023-05-10T11:46:33.684Z,55.91
2023-05-10T11:49:05.473Z,55.62
2023-05-10T11:51:37.717Z,54.65
2023-05-10T11:54:10.330Z,56.76
2023-05-10T11:56:39.952Z,57.37
2023-05-10T11:59:08.971Z,58.02
2023-05-10T12:01:38.120Z,57.22
2023-05-10T12:04:07.933Z,57.99
2023-05-10T12:06:42.585Z,59.26
2023-05-10T12:09:11.369Z,57.41
2023-05-10T12:11:44.290Z,57.09
2023-05-10T12:14:13.245Z,58.51
2023-05-10T12:16:41.545Z,58.92
2023-05-10T12:19:11.768Z,60.07
2023-05-10T12:21:42.382Z,58.52
2023-05-10T12:24:11.656Z,59.02
2023-05-10T12:29:25.681Z,57.89
2023-05-10T12:31:56.166Z,56.68
2023-05-10T12:34:34.453Z,56.65
2023-05-10T12:37:03.698Z,57.03
2023-05-10T12:39:42.516Z,58.63
2023-05-10T12:42:11.357Z,57.28
2023-05-10T12:44:39.661Z,58.71
2023-05-10T12:47:07.958Z,57.92
2023-05-10T12:49:37.564Z,56.42
2023-05-10T12:52:05.971Z,56.00
2023-05-10T12:54:34.155Z,55.28
2023-05-10T12:57:02.441Z,55.54
2023-05-10T12:59:30.692Z,54.87
2023-05-10T13:01:59.954Z,54.82
2023-05-10T13:04:28.817Z,54.88
2023-05-10T13:06:59.911Z,55.15
2023-05-10T13:09:30.354Z,54.59
2023-05-10T13:11:58.697Z,56.35
2023-05-10T13:14:27.085Z,55.33
2023-05-10T13:16:55.834Z,56.30
2023-05-10T13:19:24.114Z,55.26
2023-05-10T13:21:52.375Z,56.81
2023-05-10T13:24:22.698Z,56.21
2023-05-10T13:26:51.110Z,54.94
2023-05-10T13:29:20.118Z,54.63
2023-05-10T13:31:48.532Z,53.61
2023-05-10T13:34:16.861Z,54.03
2023-05-10T13:36:45.306Z,51.56
2023-05-10T13:39:13.725Z,51.26
2023-05-10T13:41:43.695Z,52.72
2023-05-10T13:44:15.497Z,53.49
2023-05-10T13:46:44.469Z,52.77
2023-05-10T13:49:13.039Z,52.64
2023-05-10T13:51:41.343Z,52.48
2023-05-10T13:54:10.863Z,52.17
2023-05-10T13:56:40.659Z,51.80
2023-05-10T13:59:10.512Z,52.19
2023-05-10T14:01:39.169Z,52.48
2023-05-10T14:04:08.031Z,54.33
2023-05-10T14:06:36.291Z,55.70
2023-05-10T14:09:04.704Z,55.84
2023-05-10T14:11:33.129Z,55.64
2023-05-10T14:14:01.622Z,54.91
2023-05-10T14:16:31.255Z,55.46
2023-05-10T14:18:59.461Z,55.44
2023-05-10T14:21:27.591Z,53.57
2023-05-10T14:23:56.691Z,55.12
2023-05-10T14:26:24.852Z,55.58
2023-05-10T14:28:53.177Z,53.99
2023-05-10T14:31:21.537Z,55.11
2023-05-10T14:33:51.176Z,54.50
2023-05-10T14:36:19.808Z,55.72
2023-05-10T14:38:48.032Z,55.60
2023-05-10T14:41:18.531Z,55.81
2023-05-10T14:43:46.952Z,55.37
2023-05-10T14:46:15.094Z,55.13
2023-05-10T14:48:43.432Z,55.11
2023-05-10T14:51:14.083Z,55.01
2023-05-10T14:53:42.428Z,55.60
2023-05-10T14:56:14.778Z,55.23
2023-05-10T14:58:42.976Z,55.26
2023-05-10T15:01:11.646Z,56.40
2023-05-10T15:03:40.322Z,56.61
2023-05-10T15:06:10.570Z,56.70
2023-05-10T15:08:40.081Z,57.10
2023-05-10T15:11:08.398Z,57.38
2023-05-10T15:13:36.740Z,57.66
2023-05-10T15:16:05.245Z,58.07
2023-05-10T15:18:33.571Z,59.91
2023-05-10T15:21:02.173Z,61.51
2023-05-10T15:23:30.927Z,60.66
2023-05-10T15:26:00.613Z,60.66
2023-05-10T15:28:28.851Z,61.35
2023-05-10T15:30:57.568Z,60.47
2023-05-10T15:33:25.893Z,61.61
2023-05-10T15:35:55.230Z,60.36
2023-05-10T15:38:23.529Z,61.92
2023-05-10T15:40:51.784Z,63.42
2023-05-10T15:43:21.438Z,63.50
2023-05-10T15:45:49.609Z,64.12
2023-05-10T15:48:17.961Z,65.64
2023-05-10T15:50:46.176Z,67.80
2023-05-10T15:53:14.500Z,68.78
2023-05-10T15:55:42.750Z,70.31
2023-05-10T15:58:11.324Z,71.72
2023-05-10T16:00:40.907Z,72.50
2023-05-10T16:03:09.855Z,74.06
2023-05-10T16:05:38.070Z,73.56
2023-05-10T16:08:06.617Z,73.47
2023-05-10T16:10:34.984Z,73.28
2023-05-10T16:13:03.875Z,73.26
2023-05-10T16:15:32.081Z,73.66
2023-05-10T16:18:01.724Z,73.18
2023-05-10T16:20:31.292Z,73.52
2023-05-10T16:23:03.675Z,73.29
2023-05-10T16:25:32.258Z,73.40
2023-05-10T16:28:00.988Z,73.16
2023-05-10T16:30:30.500Z,73.80
2023-05-10T16:32:59.246Z,74.14
2023-05-10T16:35:29.897Z,74.93
2023-05-10T16:37:58.732Z,75.18
2023-05-10T16:40:26.984Z,76.02
2023-05-10T16:42:55.174Z,75.97
2023-05-10T16:45:24.139Z,76.23
2023-05-10T16:47:53.620Z,76.81
2023-05-10T16:50:22.235Z,78.20
2023-05-10T16:52:51.758Z,77.88
2023-05-10T16:55:20.101Z,78.14
2023-05-10T16:57:48.280Z,78.27
2023-05-10T17:00:18.023Z,77.91
2023-05-10T17:02:46.423Z,77.76
2023-05-10T17:05:14.820Z,77.61
2023-05-10T17:07:43.043Z,77.52
2023-05-10T17:10:13.946Z,77.80
2023-05-10T17:12:42.145Z,77.86
2023-05-10T17:15:11.699Z,77.63
2023-05-10T17:17:40.007Z,77.63
2023-05-10T17:20:10.212Z,77.36
2023-05-10T17:22:38.515Z,76.66
2023-05-10T17:25:08.465Z,76.14
2023-05-10T17:27:38.190Z,75.90
2023-05-10T17:30:08.450Z,75.42
2023-05-10T17:32:36.709Z,75.57
2023-05-10T17:35:06.183Z,75.07
2023-05-10T17:37:34.747Z,75.06
2023-05-10T17:40:05.801Z,75.70
2023-05-10T17:42:33.974Z,75.18
2023-05-10T17:45:03.806Z,74.26
2023-05-10T17:47:32.950Z,73.83
2023-05-10T17:50:01.972Z,73.96
2023-05-10T17:52:32.770Z,73.76
2023-05-10T17:55:02.533Z,74.32
2023-05-10T17:57:30.918Z,74.29
2023-05-10T17:59:59.136Z,73.42
2023-05-10T18:02:28.676Z,73.15
2023-05-10T18:04:59.709Z,72.87
2023-05-10T18:07:29.974Z,72.84
2023-05-10T18:09:58.367Z,72.33
2023-05-10T18:12:27.007Z,71.90
2023-05-10T18:14:55.195Z,72.25
2023-05-10T18:17:23.458Z,72.05
2023-05-10T18:19:53.589Z,71.57
2023-05-10T18:22:21.834Z,71.91
2023-05-10T18:24:50.004Z,71.85
2023-05-10T18:27:18.259Z,72.17
2023-05-10T18:29:46.454Z,72.64
2023-05-10T18:32:14.738Z,73.06
2023-05-10T18:34:42.869Z,73.15
2023-05-10T18:37:12.724Z,72.83
2023-05-10T18:39:40.906Z,72.65
2023-05-10T18:42:10.029Z,72.69
2023-05-10T18:44:38.299Z,72.99
2023-05-10T18:47:06.779Z,72.94
2023-05-10T18:49:35.263Z,72.29
2023-05-10T18:52:03.436Z,72.86
2023-05-10T18:54:32.947Z,73.47
2023-05-10T18:57:01.141Z,73.25
2023-05-10T18:59:29.304Z,73.15
2023-05-10T19:01:57.856Z,73.02
2023-05-10T19:04:26.340Z,73.67
2023-05-10T19:06:55.939Z,74.00
2023-05-10T19:09:24.600Z,73.92
2023-05-10T19:11:54.178Z,74.13
2023-05-10T19:14:22.506Z,74.70
2023-05-10T19:16:51.970Z,75.09
2023-05-10T19:19:20.921Z,74.75
2023-05-10T19:21:49.252Z,74.24
2023-05-10T19:24:18.189Z,74.09
2023-05-10T19:26:48.460Z,74.35
2023-05-10T19:29:18.249Z,74.55
2023-05-10T19:31:46.740Z,74.20
2023-05-10T19:34:15.180Z,73.83
2023-05-10T19:36:43.384Z,73.96
2023-05-10T19:39:11.648Z,74.25
2023-05-10T19:41:40.065Z,74.05
2023-05-10T19:44:08.636Z,74.47
2023-05-10T19:46:38.277Z,74.30
2023-05-10T19:49:06.557Z,74.51
2023-05-10T19:51:34.787Z,74.51
2023-05-10T19:54:03.732Z,74.33
2023-05-10T19:56:31.937Z,74.34
2023-05-10T19:59:00.041Z,74.37
2023-05-10T20:01:28.472Z,74.47
2023-05-10T20:03:58.054Z,74.35
2023-05-10T20:06:26.395Z,74.36
2023-05-10T20:08:54.762Z,74.36
2023-05-10T20:11:23.408Z,74.57
2023-05-10T20:13:51.614Z,75.04
2023-05-10T20:16:20.134Z,75.09
2023-05-10T20:18:48.403Z,74.96
2023-05-10T20:21:18.427Z,74.80
2023-05-10T20:23:46.624Z,74.56
2023-05-10T20:26:14.888Z,74.33
2023-05-10T20:28:43.406Z,74.34
2023-05-10T20:31:11.961Z,74.82
2023-05-10T20:33:40.219Z,74.86
2023-05-10T20:36:09.604Z,74.68
2023-05-10T20:38:39.386Z,74.68
2023-05-10T20:41:07.660Z,74.69
2023-05-10T20:43:35.945Z,74.37
2023-05-10T20:46:05.444Z,74.77
2023-05-10T20:48:34.232Z,74.40
2023-05-10T20:51:03.259Z,74.72
2023-05-10T20:53:31.684Z,74.57
2023-05-10T20:56:01.470Z,74.64
2023-05-10T20:58:29.713Z,74.54
2023-05-10T21:03:26.185Z,75.57
2023-05-10T21:05:54.445Z,76.20
2023-05-10T21:08:22.586Z,76.25
2023-05-10T21:10:50.948Z,76.01
2023-05-10T21:13:21.774Z,75.96
2023-05-10T21:15:50.093Z,75.66
2023-05-10T21:18:18.282Z,75.43
2023-05-10T21:20:46.557Z,75.75
2023-05-10T21:23:14.907Z,75.57
2023-05-10T21:25:43.292Z,75.71
2023-05-10T21:28:12.046Z,75.99
2023-05-10T21:30:41.587Z,75.95
2023-05-10T21:33:09.770Z,76.43
2023-05-10T21:35:39.348Z,75.91
2023-05-10T21:38:07.583Z,76.63
2023-05-10T21:40:35.812Z,76.22
2023-05-10T21:43:03.930Z,76.27
2023-05-10T21:45:33.870Z,76.55
2023-05-10T21:48:03.821Z,76.47
2023-05-10T21:50:32.190Z,76.07
2023-05-10T21:53:01.353Z,76.40
2023-05-10T21:55:29.700Z,76.50
2023-05-10T21:57:58.718Z,76.73
2023-05-10T22:00:26.902Z,76.49
2023-05-10T22:02:55.135Z,76.43
2023-05-10T22:05:24.897Z,76.29
2023-05-10T22:07:53.068Z,76.11
2023-05-10T22:10:21.345Z,76.48
2023-05-10T22:12:49.626Z,76.45
2023-05-10T22:15:17.970Z,76.38
2023-05-10T22:17:46.265Z,76.71
2023-05-10T22:20:14.698Z,76.67
2023-05-10T22:22:45.467Z,76.44
2023-05-10T22:25:13.654Z,76.92
2023-05-10T22:27:41.892Z,76.94
2023-05-10T22:30:12.636Z,77.20
2023-05-10T22:32:40.973Z,77.34
2023-05-10T22:35:10.270Z,77.45
2023-05-10T22:37:38.631Z,77.37
2023-05-10T22:40:10.537Z,76.99
2023-05-10T22:42:38.805Z,77.39
2023-05-10T22:45:08.860Z,77.36
2023-05-10T22:47:37.130Z,77.05
2023-05-10T22:50:06.416Z,76.88
2023-05-10T22:52:34.670Z,77.05
2023-05-10T22:55:02.912Z,76.85
2023-05-10T22:57:32.627Z,76.62
2023-05-10T23:00:01.348Z,76.46
2023-05-10T23:02:29.792Z,76.45
2023-05-10T23:04:58.076Z,76.33
2023-05-10T23:07:26.307Z,76.38
2023-05-10T23:09:54.533Z,76.16
2023-05-10T23:12:22.681Z,76.29
2023-05-10T23:14:52.260Z,76.18
2023-05-10T23:17:20.525Z,75.68
2023-05-10T23:19:48.706Z,75.90
2023-05-10T23:22:17.036Z,76.01
2023-05-10T23:24:45.230Z,75.82
2023-05-10T23:27:14.570Z,75.39
2023-05-10T23:29:43.075Z,75.61
2023-05-10T23:32:12.733Z,75.35
2023-05-10T23:34:41.006Z,75.17
2023-05-10T23:37:09.150Z,75.17
2023-05-10T23:39:38.381Z,75.19
2023-05-10T23:42:07.378Z,75.40
2023-05-10T23:44:37.013Z,75.46
2023-05-10T23:47:05.997Z,75.10
2023-05-10T23:49:35.745Z,75.14
2023-05-10T23:52:03.874Z,75.37
2023-05-10T23:54:32.189Z,75.53
2023-05-10T23:57:01.040Z,75.63
2023-05-10T23:59:29.332Z,76.47
